sensor_id;sensor_type;location;lat;lon;timestamp;temperature;humidity
12315;DHT22;23886;46.614;14.276;2023-03-23T00:02:15;6.50;99.90
12315;DHT22;23886;46.614;14.276;2023-03-23T00:04:44;6.50;99.90
12315;DHT22;23886;46.614;14.276;2023-03-23T00:07:14;6.50;99.90
12315;DHT22;23886;46.614;14.276;2023-03-23T00:09:46;6.50;99.90
12315;DHT22;23886;46.614;14.276;2023-03-23T00:12:19;6.30;99.90
12315;DHT22;23886;46.614;14.276;2023-03-23T00:14:47;6.30;99.90
12315;DHT22;23886;46.614;14.276;2023-03-23T00:17:20;6.40;99.90
12315;DHT22;23886;46.614;14.276;2023-03-23T00:19:50;6.60;99.90
12315;DHT22;23886;46.614;14.276;2023-03-23T00:22:17;6.50;99.90
12315;DHT22;23886;46.614;14.276;2023-03-23T00:24:47;6.40;99.90
12315;DHT22;23886;46.614;14.276;2023-03-23T00:27:16;6.30;99.90
12315;DHT22;23886;46.614;14.276;2023-03-23T00:29:43;6.30;99.90
12315;DHT22;23886;46.614;14.276;2023-03-23T00:32:12;6.30;99.90
12315;DHT22;23886;46.614;14.276;2023-03-23T00:34:40;6.20;99.90
12315;DHT22;23886;46.614;14.276;2023-03-23T00:37:10;6.10;99.90
12315;DHT22;23886;46.614;14.276;2023-03-23T00:39:38;6.10;99.90
12315;DHT22;23886;46.614;14.276;2023-03-23T00:42:12;6.10;99.90
12315;DHT22;23886;46.614;14.276;2023-03-23T00:44:39;6.20;99.90
12315;DHT22;23886;46.614;14.276;2023-03-23T00:47:06;6.20;99.90
12315;DHT22;23886;46.614;14.276;2023-03-23T00:49:36;6.10;99.90
12315;DHT22;23886;46.614;14.276;2023-03-23T00:52:05;6.20;99.90
12315;DHT22;23886;46.614;14.276;2023-03-23T00:54:34;6.40;99.90
12315;DHT22;23886;46.614;14.276;2023-03-23T00:57:03;6.60;99.90
12315;DHT22;23886;46.614;14.276;2023-03-23T00:59:31;6.60;99.90
12315;DHT22;23886;46.614;14.276;2023-03-23T01:01:58;6.30;99.90
12315;DHT22;23886;46.614;14.276;2023-03-23T01:04:25;6.20;99.90
12315;DHT22;23886;46.614;14.276;2023-03-23T01:06:54;5.90;99.90
12315;DHT22;23886;46.614;14.276;2023-03-23T01:09:22;5.80;99.90
12315;DHT22;23886;46.614;14.276;2023-03-23T01:11:51;5.90;99.90
12315;DHT22;23886;46.614;14.276;2023-03-23T01:14:21;5.90;99.90
12315;DHT22;23886;46.614;14.276;2023-03-23T01:16:48;5.70;99.90
12315;DHT22;23886;46.614;14.276;2023-03-23T01:19:15;5.70;99.90
12315;DHT22;23886;46.614;14.276;2023-03-23T01:21:42;5.60;99.90
12315;DHT22;23886;46.614;14.276;2023-03-23T01:24:09;5.60;99.90
12315;DHT22;23886;46.614;14.276;2023-03-23T01:26:37;5.60;99.90
12315;DHT22;23886;46.614;14.276;2023-03-23T01:29:05;5.70;99.90
12315;DHT22;23886;46.614;14.276;2023-03-23T01:31:33;5.70;99.90
12315;DHT22;23886;46.614;14.276;2023-03-23T01:34:02;5.60;99.90
12315;DHT22;23886;46.614;14.276;2023-03-23T01:36:30;5.50;99.90
12315;DHT22;23886;46.614;14.276;2023-03-23T01:38:58;5.60;99.90
12315;DHT22;23886;46.614;14.276;2023-03-23T01:41:26;5.70;99.90
12315;DHT22;23886;46.614;14.276;2023-03-23T01:43:55;5.60;99.90
12315;DHT22;23886;46.614;14.276;2023-03-23T01:46:25;5.60;99.90
12315;DHT22;23886;46.614;14.276;2023-03-23T01:48:53;5.60;99.90
12315;DHT22;23886;46.614;14.276;2023-03-23T01:51:21;5.60;99.90
12315;DHT22;23886;46.614;14.276;2023-03-23T01:53:50;5.40;99.90
12315;DHT22;23886;46.614;14.276;2023-03-23T01:56:22;5.40;99.90
12315;DHT22;23886;46.614;14.276;2023-03-23T01:58:51;5.40;99.90
12315;DHT22;23886;46.614;14.276;2023-03-23T02:01:19;5.50;99.90
12315;DHT22;23886;46.614;14.276;2023-03-23T02:03:52;5.40;99.90
12315;DHT22;23886;46.614;14.276;2023-03-23T02:06:20;5.40;99.90
12315;DHT22;23886;46.614;14.276;2023-03-23T02:08:49;5.20;99.90
12315;DHT22;23886;46.614;14.276;2023-03-23T02:11:17;5.20;99.90
12315;DHT22;23886;46.614;14.276;2023-03-23T02:13:45;5.30;99.90
12315;DHT22;23886;46.614;14.276;2023-03-23T02:16:18;5.10;99.90
12315;DHT22;23886;46.614;14.276;2023-03-23T02:18:57;5.20;99.90
12315;DHT22;23886;46.614;14.276;2023-03-23T02:21:54;5.10;99.90
12315;DHT22;23886;46.614;14.276;2023-03-23T02:24:43;5.10;99.90
12315;DHT22;23886;46.614;14.276;2023-03-23T02:27:25;5.10;99.90
12315;DHT22;23886;46.614;14.276;2023-03-23T02:30:32;5.10;99.90
12315;DHT22;23886;46.614;14.276;2023-03-23T02:36:14;5.10;99.90
12315;DHT22;23886;46.614;14.276;2023-03-23T02:38:51;5.20;99.90
12315;DHT22;23886;46.614;14.276;2023-03-23T02:41:21;5.20;99.90
12315;DHT22;23886;46.614;14.276;2023-03-23T02:43:49;5.20;99.90
12315;DHT22;23886;46.614;14.276;2023-03-23T02:46:17;5.10;99.90
12315;DHT22;23886;46.614;14.276;2023-03-23T02:48:45;5.00;99.90
12315;DHT22;23886;46.614;14.276;2023-03-23T02:51:16;5.00;99.90
12315;DHT22;23886;46.614;14.276;2023-03-23T02:53:45;5.00;99.90
12315;DHT22;23886;46.614;14.276;2023-03-23T02:56:14;5.10;99.90
12315;DHT22;23886;46.614;14.276;2023-03-23T02:58:41;5.10;99.90
12315;DHT22;23886;46.614;14.276;2023-03-23T03:01:46;5.00;99.90
12315;DHT22;23886;46.614;14.276;2023-03-23T03:04:18;4.90;99.90
12315;DHT22;23886;46.614;14.276;2023-03-23T03:06:58;4.80;99.90
12315;DHT22;23886;46.614;14.276;2023-03-23T03:09:33;4.80;99.90
12315;DHT22;23886;46.614;14.276;2023-03-23T03:12:06;4.80;99.90
12315;DHT22;23886;46.614;14.276;2023-03-23T03:14:38;4.90;99.90
12315;DHT22;23886;46.614;14.276;2023-03-23T03:17:13;4.90;99.90
12315;DHT22;23886;46.614;14.276;2023-03-23T03:19:45;4.90;99.90
12315;DHT22;23886;46.614;14.276;2023-03-23T03:22:17;4.90;99.90
12315;DHT22;23886;46.614;14.276;2023-03-23T03:24:44;4.70;99.90
12315;DHT22;23886;46.614;14.276;2023-03-23T03:27:13;4.70;99.90
12315;DHT22;23886;46.614;14.276;2023-03-23T03:29:44;4.60;99.90
12315;DHT22;23886;46.614;14.276;2023-03-23T03:32:15;4.60;99.90
12315;DHT22;23886;46.614;14.276;2023-03-23T03:34:44;4.60;99.90
12315;DHT22;23886;46.614;14.276;2023-03-23T03:37:14;4.60;99.90
12315;DHT22;23886;46.614;14.276;2023-03-23T03:39:42;4.50;99.90
12315;DHT22;23886;46.614;14.276;2023-03-23T03:42:09;4.40;99.90
12315;DHT22;23886;46.614;14.276;2023-03-23T03:44:36;4.40;99.90
12315;DHT22;23886;46.614;14.276;2023-03-23T03:47:03;4.30;99.90
12315;DHT22;23886;46.614;14.276;2023-03-23T03:49:30;4.30;99.90
12315;DHT22;23886;46.614;14.276;2023-03-23T03:51:57;4.40;99.90
12315;DHT22;23886;46.614;14.276;2023-03-23T03:54:25;4.50;99.90
12315;DHT22;23886;46.614;14.276;2023-03-23T03:56:52;4.60;99.90
12315;DHT22;23886;46.614;14.276;2023-03-23T03:59:23;4.60;99.90
12315;DHT22;23886;46.614;14.276;2023-03-23T04:01:51;4.60;99.90
12315;DHT22;23886;46.614;14.276;2023-03-23T04:04:20;4.60;99.90
12315;DHT22;23886;46.614;14.276;2023-03-23T04:06:47;4.50;99.90
12315;DHT22;23886;46.614;14.276;2023-03-23T04:09:14;4.20;99.90
12315;DHT22;23886;46.614;14.276;2023-03-23T04:11:43;4.20;99.90
12315;DHT22;23886;46.614;14.276;2023-03-23T04:14:10;4.20;99.90
12315;DHT22;23886;46.614;14.276;2023-03-23T04:16:37;4.20;99.90
12315;DHT22;23886;46.614;14.276;2023-03-23T04:19:04;4.10;99.90
12315;DHT22;23886;46.614;14.276;2023-03-23T04:21:31;4.10;99.90
12315;DHT22;23886;46.614;14.276;2023-03-23T04:23:58;4.20;99.90
12315;DHT22;23886;46.614;14.276;2023-03-23T04:26:26;4.20;99.90
12315;DHT22;23886;46.614;14.276;2023-03-23T04:28:55;4.20;99.90
12315;DHT22;23886;46.614;14.276;2023-03-23T04:31:25;4.10;99.90
12315;DHT22;23886;46.614;14.276;2023-03-23T04:33:52;4.10;99.90
12315;DHT22;23886;46.614;14.276;2023-03-23T04:36:20;4.00;99.90
12315;DHT22;23886;46.614;14.276;2023-03-23T04:38:48;4.00;99.90
12315;DHT22;23886;46.614;14.276;2023-03-23T04:41:20;4.00;99.90
12315;DHT22;23886;46.614;14.276;2023-03-23T04:43:47;4.00;99.90
12315;DHT22;23886;46.614;14.276;2023-03-23T04:46:19;4.00;99.90
12315;DHT22;23886;46.614;14.276;2023-03-23T04:48:47;4.00;99.90
12315;DHT22;23886;46.614;14.276;2023-03-23T04:51:14;4.00;99.90
12315;DHT22;23886;46.614;14.276;2023-03-23T04:53:41;4.00;99.90
12315;DHT22;23886;46.614;14.276;2023-03-23T04:56:09;4.00;99.90
12315;DHT22;23886;46.614;14.276;2023-03-23T04:58:36;4.10;99.90
12315;DHT22;23886;46.614;14.276;2023-03-23T05:01:05;4.10;99.90
12315;DHT22;23886;46.614;14.276;2023-03-23T05:03:33;4.00;99.90
12315;DHT22;23886;46.614;14.276;2023-03-23T05:06:01;4.00;99.90
12315;DHT22;23886;46.614;14.276;2023-03-23T05:08:28;4.00;99.90
12315;DHT22;23886;46.614;14.276;2023-03-23T05:10:58;4.00;99.90
12315;DHT22;23886;46.614;14.276;2023-03-23T05:13:26;4.10;99.90
12315;DHT22;23886;46.614;14.276;2023-03-23T05:15:53;4.10;99.90
12315;DHT22;23886;46.614;14.276;2023-03-23T05:18:21;4.10;99.90
12315;DHT22;23886;46.614;14.276;2023-03-23T05:20:49;4.20;99.90
12315;DHT22;23886;46.614;14.276;2023-03-23T05:23:18;4.20;99.90
12315;DHT22;23886;46.614;14.276;2023-03-23T05:25:53;4.20;99.90
12315;DHT22;23886;46.614;14.276;2023-03-23T05:28:20;4.20;99.90
12315;DHT22;23886;46.614;14.276;2023-03-23T05:30:49;4.30;99.90
12315;DHT22;23886;46.614;14.276;2023-03-23T05:33:16;4.50;99.90
12315;DHT22;23886;46.614;14.276;2023-03-23T05:35:44;4.60;99.90
12315;DHT22;23886;46.614;14.276;2023-03-23T05:38:14;4.70;99.90
12315;DHT22;23886;46.614;14.276;2023-03-23T05:40:42;4.80;99.90
12315;DHT22;23886;46.614;14.276;2023-03-23T05:43:09;4.90;99.90
12315;DHT22;23886;46.614;14.276;2023-03-23T05:45:36;5.00;99.90
12315;DHT22;23886;46.614;14.276;2023-03-23T05:48:04;5.00;99.90
12315;DHT22;23886;46.614;14.276;2023-03-23T05:50:31;5.10;99.90
12315;DHT22;23886;46.614;14.276;2023-03-23T05:52:58;5.10;99.90
12315;DHT22;23886;46.614;14.276;2023-03-23T05:55:27;5.10;99.90
12315;DHT22;23886;46.614;14.276;2023-03-23T05:57:54;5.30;99.90
12315;DHT22;23886;46.614;14.276;2023-03-23T06:00:21;5.40;99.90
12315;DHT22;23886;46.614;14.276;2023-03-23T06:02:49;5.60;99.90
12315;DHT22;23886;46.614;14.276;2023-03-23T06:05:17;5.70;99.90
12315;DHT22;23886;46.614;14.276;2023-03-23T06:07:45;5.80;99.90
12315;DHT22;23886;46.614;14.276;2023-03-23T06:10:12;5.90;99.90
12315;DHT22;23886;46.614;14.276;2023-03-23T06:12:40;6.00;99.90
12315;DHT22;23886;46.614;14.276;2023-03-23T06:15:08;6.00;99.90
12315;DHT22;23886;46.614;14.276;2023-03-23T06:17:36;6.00;99.90
12315;DHT22;23886;46.614;14.276;2023-03-23T06:20:04;6.00;99.90
12315;DHT22;23886;46.614;14.276;2023-03-23T06:22:36;6.10;99.90
12315;DHT22;23886;46.614;14.276;2023-03-23T06:25:04;6.20;99.90
12315;DHT22;23886;46.614;14.276;2023-03-23T06:27:31;6.20;99.90
12315;DHT22;23886;46.614;14.276;2023-03-23T06:30:00;6.40;99.90
12315;DHT22;23886;46.614;14.276;2023-03-23T06:32:28;6.50;99.90
12315;DHT22;23886;46.614;14.276;2023-03-23T06:34:56;6.60;99.90
12315;DHT22;23886;46.614;14.276;2023-03-23T06:37:23;6.80;99.90
12315;DHT22;23886;46.614;14.276;2023-03-23T06:39:51;6.90;99.90
12315;DHT22;23886;46.614;14.276;2023-03-23T06:42:18;6.90;99.90
12315;DHT22;23886;46.614;14.276;2023-03-23T06:44:45;6.90;99.90
12315;DHT22;23886;46.614;14.276;2023-03-23T06:47:14;7.00;99.90
12315;DHT22;23886;46.614;14.276;2023-03-23T06:49:41;7.10;99.90
12315;DHT22;23886;46.614;14.276;2023-03-23T06:52:08;7.20;99.90
12315;DHT22;23886;46.614;14.276;2023-03-23T06:54:35;7.40;99.90
12315;DHT22;23886;46.614;14.276;2023-03-23T06:57:02;7.50;99.90
12315;DHT22;23886;46.614;14.276;2023-03-23T06:59:29;7.70;99.90
12315;DHT22;23886;46.614;14.276;2023-03-23T07:01:56;7.90;99.90
12315;DHT22;23886;46.614;14.276;2023-03-23T07:04:24;8.30;99.90
12315;DHT22;23886;46.614;14.276;2023-03-23T07:06:51;8.30;99.90
12315;DHT22;23886;46.614;14.276;2023-03-23T07:09:18;8.40;99.90
12315;DHT22;23886;46.614;14.276;2023-03-23T07:11:46;8.20;99.90
12315;DHT22;23886;46.614;14.276;2023-03-23T07:14:13;8.30;99.90
12315;DHT22;23886;46.614;14.276;2023-03-23T07:16:40;8.80;99.90
12315;DHT22;23886;46.614;14.276;2023-03-23T07:19:07;8.90;99.90
12315;DHT22;23886;46.614;14.276;2023-03-23T07:21:36;8.80;99.90
12315;DHT22;23886;46.614;14.276;2023-03-23T07:24:03;8.80;99.90
12315;DHT22;23886;46.614;14.276;2023-03-23T07:26:30;9.20;99.90
12315;DHT22;23886;46.614;14.276;2023-03-23T07:28:58;9.40;99.90
12315;DHT22;23886;46.614;14.276;2023-03-23T07:31:25;9.80;99.90
12315;DHT22;23886;46.614;14.276;2023-03-23T07:33:52;9.90;99.90
12315;DHT22;23886;46.614;14.276;2023-03-23T07:36:19;9.70;99.90
12315;DHT22;23886;46.614;14.276;2023-03-23T07:38:47;9.80;99.90
12315;DHT22;23886;46.614;14.276;2023-03-23T07:41:15;9.90;99.90
12315;DHT22;23886;46.614;14.276;2023-03-23T07:43:43;9.70;99.90
12315;DHT22;23886;46.614;14.276;2023-03-23T07:46:10;10.00;99.90
12315;DHT22;23886;46.614;14.276;2023-03-23T07:48:37;9.90;99.90
12315;DHT22;23886;46.614;14.276;2023-03-23T07:51:05;10.20;99.90
12315;DHT22;23886;46.614;14.276;2023-03-23T07:53:32;10.20;99.90
12315;DHT22;23886;46.614;14.276;2023-03-23T07:56:01;10.50;99.90
12315;DHT22;23886;46.614;14.276;2023-03-23T07:58:29;10.50;99.90
12315;DHT22;23886;46.614;14.276;2023-03-23T08:00:56;10.60;99.90
12315;DHT22;23886;46.614;14.276;2023-03-23T08:03:23;10.90;99.90
12315;DHT22;23886;46.614;14.276;2023-03-23T08:05:50;11.00;99.90
12315;DHT22;23886;46.614;14.276;2023-03-23T08:08:17;10.90;99.90
12315;DHT22;23886;46.614;14.276;2023-03-23T08:10:45;10.90;99.90
12315;DHT22;23886;46.614;14.276;2023-03-23T08:13:13;11.00;99.90
12315;DHT22;23886;46.614;14.276;2023-03-23T08:15:40;10.80;99.90
12315;DHT22;23886;46.614;14.276;2023-03-23T08:18:07;10.90;99.90
12315;DHT22;23886;46.614;14.276;2023-03-23T08:20:35;10.90;99.90
12315;DHT22;23886;46.614;14.276;2023-03-23T08:23:02;10.90;99.90
12315;DHT22;23886;46.614;14.276;2023-03-23T08:25:30;11.00;99.90
12315;DHT22;23886;46.614;14.276;2023-03-23T08:27:58;11.30;99.90
12315;DHT22;23886;46.614;14.276;2023-03-23T08:30:29;11.70;99.90
12315;DHT22;23886;46.614;14.276;2023-03-23T08:32:58;11.70;99.90
12315;DHT22;23886;46.614;14.276;2023-03-23T08:35:26;11.80;99.90
12315;DHT22;23886;46.614;14.276;2023-03-23T08:37:54;11.70;99.90
12315;DHT22;23886;46.614;14.276;2023-03-23T08:40:23;11.80;99.90
12315;DHT22;23886;46.614;14.276;2023-03-23T08:42:51;11.70;99.90
12315;DHT22;23886;46.614;14.276;2023-03-23T08:45:20;12.00;99.90
12315;DHT22;23886;46.614;14.276;2023-03-23T08:47:49;11.90;99.90
12315;DHT22;23886;46.614;14.276;2023-03-23T08:50:19;12.10;99.90
12315;DHT22;23886;46.614;14.276;2023-03-23T08:52:47;12.30;99.90
12315;DHT22;23886;46.614;14.276;2023-03-23T08:55:15;12.20;99.90
12315;DHT22;23886;46.614;14.276;2023-03-23T08:57:43;12.30;99.90
12315;DHT22;23886;46.614;14.276;2023-03-23T09:00:12;12.30;99.90
12315;DHT22;23886;46.614;14.276;2023-03-23T09:02:42;12.50;99.90
12315;DHT22;23886;46.614;14.276;2023-03-23T09:05:11;12.20;99.90
12315;DHT22;23886;46.614;14.276;2023-03-23T09:07:38;12.60;99.90
12315;DHT22;23886;46.614;14.276;2023-03-23T09:10:07;12.80;99.90
12315;DHT22;23886;46.614;14.276;2023-03-23T09:12:35;12.90;99.90
12315;DHT22;23886;46.614;14.276;2023-03-23T09:15:03;12.80;99.90
12315;DHT22;23886;46.614;14.276;2023-03-23T09:17:34;12.90;99.90
12315;DHT22;23886;46.614;14.276;2023-03-23T09:20:02;12.90;99.90
12315;DHT22;23886;46.614;14.276;2023-03-23T09:22:34;13.00;99.90
12315;DHT22;23886;46.614;14.276;2023-03-23T09:25:00;13.20;99.90
12315;DHT22;23886;46.614;14.276;2023-03-23T09:27:27;13.10;99.90
12315;DHT22;23886;46.614;14.276;2023-03-23T09:29:54;13.40;99.90
12315;DHT22;23886;46.614;14.276;2023-03-23T09:32:22;13.70;99.90
12315;DHT22;23886;46.614;14.276;2023-03-23T09:34:49;13.80;99.90
12315;DHT22;23886;46.614;14.276;2023-03-23T09:37:17;14.00;99.90
12315;DHT22;23886;46.614;14.276;2023-03-23T09:39:45;14.30;99.90
12315;DHT22;23886;46.614;14.276;2023-03-23T09:42:22;14.50;99.90
12315;DHT22;23886;46.614;14.276;2023-03-23T09:45:04;14.40;99.90
12315;DHT22;23886;46.614;14.276;2023-03-23T09:47:41;14.30;99.10
12315;DHT22;23886;46.614;14.276;2023-03-23T09:50:12;14.20;99.90
12315;DHT22;23886;46.614;14.276;2023-03-23T09:52:44;14.10;99.70
12315;DHT22;23886;46.614;14.276;2023-03-23T09:55:15;14.40;99.30
12315;DHT22;23886;46.614;14.276;2023-03-23T09:57:47;14.70;99.50
12315;DHT22;23886;46.614;14.276;2023-03-23T10:00:19;15.10;98.90
12315;DHT22;23886;46.614;14.276;2023-03-23T10:02:54;15.40;98.50
12315;DHT22;23886;46.614;14.276;2023-03-23T10:05:30;15.20;98.30
12315;DHT22;23886;46.614;14.276;2023-03-23T10:08:00;14.90;98.20
12315;DHT22;23886;46.614;14.276;2023-03-23T10:10:35;15.00;98.10
12315;DHT22;23886;46.614;14.276;2023-03-23T10:13:09;14.90;98.90
12315;DHT22;23886;46.614;14.276;2023-03-23T10:15:43;15.10;98.60
12315;DHT22;23886;46.614;14.276;2023-03-23T10:18:15;15.30;98.20
12315;DHT22;23886;46.614;14.276;2023-03-23T10:20:48;15.40;97.70
12315;DHT22;23886;46.614;14.276;2023-03-23T10:23:41;15.50;97.40
12315;DHT22;23886;46.614;14.276;2023-03-23T10:26:16;15.70;97.40
12315;DHT22;23886;46.614;14.276;2023-03-23T10:28:48;16.30;96.20
12315;DHT22;23886;46.614;14.276;2023-03-23T10:31:22;16.70;95.90
12315;DHT22;23886;46.614;14.276;2023-03-23T10:33:53;16.80;95.90
12315;DHT22;23886;46.614;14.276;2023-03-23T10:36:24;16.70;95.70
12315;DHT22;23886;46.614;14.276;2023-03-23T10:38:58;16.90;95.30
12315;DHT22;23886;46.614;14.276;2023-03-23T10:41:27;17.10;95.40
12315;DHT22;23886;46.614;14.276;2023-03-23T10:43:55;17.30;95.50
12315;DHT22;23886;46.614;14.276;2023-03-23T10:46:29;16.70;94.90
12315;DHT22;23886;46.614;14.276;2023-03-23T10:49:00;16.50;95.70
12315;DHT22;23886;46.614;14.276;2023-03-23T10:51:32;16.30;95.90
12315;DHT22;23886;46.614;14.276;2023-03-23T10:54:02;16.40;95.70
12315;DHT22;23886;46.614;14.276;2023-03-23T10:56:36;16.70;95.30
12315;DHT22;23886;46.614;14.276;2023-03-23T10:59:14;16.50;95.40
12315;DHT22;23886;46.614;14.276;2023-03-23T11:01:44;16.70;95.30
12315;DHT22;23886;46.614;14.276;2023-03-23T11:04:13;17.00;95.10
12315;DHT22;23886;46.614;14.276;2023-03-23T11:06:45;17.10;95.00
12315;DHT22;23886;46.614;14.276;2023-03-23T11:09:14;17.10;94.10
12315;DHT22;23886;46.614;14.276;2023-03-23T11:11:49;17.00;94.40
12315;DHT22;23886;46.614;14.276;2023-03-23T11:14:18;17.10;94.90
12315;DHT22;23886;46.614;14.276;2023-03-23T11:16:50;17.00;94.10
12315;DHT22;23886;46.614;14.276;2023-03-23T11:19:22;16.80;93.90
12315;DHT22;23886;46.614;14.276;2023-03-23T11:21:51;17.00;94.10
12315;DHT22;23886;46.614;14.276;2023-03-23T11:24:22;17.00;94.10
12315;DHT22;23886;46.614;14.276;2023-03-23T11:26:52;17.00;93.70
12315;DHT22;23886;46.614;14.276;2023-03-23T11:29:21;17.20;93.60
12315;DHT22;23886;46.614;14.276;2023-03-23T11:31:51;17.40;93.90
12315;DHT22;23886;46.614;14.276;2023-03-23T11:34:21;17.60;93.80
12315;DHT22;23886;46.614;14.276;2023-03-23T11:36:50;17.60;93.10
12315;DHT22;23886;46.614;14.276;2023-03-23T11:39:23;17.70;93.60
12315;DHT22;23886;46.614;14.276;2023-03-23T11:41:52;18.40;93.30
12315;DHT22;23886;46.614;14.276;2023-03-23T11:44:22;18.00;93.00
12315;DHT22;23886;46.614;14.276;2023-03-23T11:47:00;18.40;93.00
12315;DHT22;23886;46.614;14.276;2023-03-23T11:49:37;18.70;92.30
12315;DHT22;23886;46.614;14.276;2023-03-23T11:52:13;19.00;92.10
12315;DHT22;23886;46.614;14.276;2023-03-23T11:54:45;19.40;91.90
12315;DHT22;23886;46.614;14.276;2023-03-23T11:57:14;19.40;91.50
12315;DHT22;23886;46.614;14.276;2023-03-23T11:59:41;19.10;91.40
12315;DHT22;23886;46.614;14.276;2023-03-23T12:02:39;18.80;91.70
12315;DHT22;23886;46.614;14.276;2023-03-23T12:05:45;18.80;91.80
12315;DHT22;23886;46.614;14.276;2023-03-23T12:08:29;19.00;92.10
12315;DHT22;23886;46.614;14.276;2023-03-23T12:11:03;19.30;92.50
12315;DHT22;23886;46.614;14.276;2023-03-23T12:13:56;19.60;92.30
12315;DHT22;23886;46.614;14.276;2023-03-23T12:16:37;20.20;91.30
12315;DHT22;23886;46.614;14.276;2023-03-23T12:19:15;20.40;90.90
12315;DHT22;23886;46.614;14.276;2023-03-23T12:21:50;20.00;90.40
12315;DHT22;23886;46.614;14.276;2023-03-23T12:24:30;19.70;90.90
12315;DHT22;23886;46.614;14.276;2023-03-23T12:27:06;19.50;91.10
12315;DHT22;23886;46.614;14.276;2023-03-23T12:29:55;19.90;91.20
12315;DHT22;23886;46.614;14.276;2023-03-23T12:32:41;20.20;90.50
12315;DHT22;23886;46.614;14.276;2023-03-23T12:35:19;20.60;89.30
12315;DHT22;23886;46.614;14.276;2023-03-23T12:37:58;20.90;90.10
12315;DHT22;23886;46.614;14.276;2023-03-23T12:40:54;20.90;88.70
12315;DHT22;23886;46.614;14.276;2023-03-23T12:43:28;21.50;86.10
12315;DHT22;23886;46.614;14.276;2023-03-23T12:46:22;21.70;87.70
12315;DHT22;23886;46.614;14.276;2023-03-23T12:48:57;22.00;87.60
12315;DHT22;23886;46.614;14.276;2023-03-23T12:51:31;22.20;86.50
12315;DHT22;23886;46.614;14.276;2023-03-23T12:54:07;21.60;87.20
12315;DHT22;23886;46.614;14.276;2023-03-23T12:56:41;22.00;85.30
12315;DHT22;23886;46.614;14.276;2023-03-23T12:59:16;21.90;86.80
12315;DHT22;23886;46.614;14.276;2023-03-23T13:01:47;22.10;86.50
12315;DHT22;23886;46.614;14.276;2023-03-23T13:04:18;21.90;86.00
12315;DHT22;23886;46.614;14.276;2023-03-23T13:06:47;21.80;84.00
12315;DHT22;23886;46.614;14.276;2023-03-23T13:09:19;22.00;85.30
12315;DHT22;23886;46.614;14.276;2023-03-23T13:11:49;21.90;84.50
12315;DHT22;23886;46.614;14.276;2023-03-23T13:14:26;21.50;84.90
12315;DHT22;23886;46.614;14.276;2023-03-23T13:17:04;21.30;84.60
12315;DHT22;23886;46.614;14.276;2023-03-23T13:19:51;21.30;84.70
12315;DHT22;23886;46.614;14.276;2023-03-23T13:22:23;21.30;85.50
12315;DHT22;23886;46.614;14.276;2023-03-23T13:24:55;22.00;84.80
12315;DHT22;23886;46.614;14.276;2023-03-23T13:27:24;22.20;83.10
12315;DHT22;23886;46.614;14.276;2023-03-23T13:29:53;22.60;80.70
12315;DHT22;23886;46.614;14.276;2023-03-23T13:32:28;23.40;79.70
12315;DHT22;23886;46.614;14.276;2023-03-23T13:34:56;23.80;79.20
12315;DHT22;23886;46.614;14.276;2023-03-23T13:37:24;23.80;77.70
12315;DHT22;23886;46.614;14.276;2023-03-23T13:39:53;23.90;76.30
12315;DHT22;23886;46.614;14.276;2023-03-23T13:42:24;25.00;74.50
12315;DHT22;23886;46.614;14.276;2023-03-23T13:45:07;25.30;75.00
12315;DHT22;23886;46.614;14.276;2023-03-23T13:47:40;25.50;74.80
12315;DHT22;23886;46.614;14.276;2023-03-23T13:50:25;25.80;71.60
12315;DHT22;23886;46.614;14.276;2023-03-23T13:52:58;25.70;70.80
12315;DHT22;23886;46.614;14.276;2023-03-23T13:55:50;25.90;69.60
12315;DHT22;23886;46.614;14.276;2023-03-23T13:58:24;25.80;70.70
12315;DHT22;23886;46.614;14.276;2023-03-23T14:01:13;25.90;68.80
12315;DHT22;23886;46.614;14.276;2023-03-23T14:03:45;25.80;67.80
12315;DHT22;23886;46.614;14.276;2023-03-23T14:06:18;27.00;63.90
12315;DHT22;23886;46.614;14.276;2023-03-23T14:08:48;26.50;64.10
12315;DHT22;23886;46.614;14.276;2023-03-23T14:11:20;25.50;65.40
12315;DHT22;23886;46.614;14.276;2023-03-23T14:14:00;25.40;66.70
12315;DHT22;23886;46.614;14.276;2023-03-23T14:16:35;25.30;64.80
12315;DHT22;23886;46.614;14.276;2023-03-23T14:19:14;25.50;63.40
12315;DHT22;23886;46.614;14.276;2023-03-23T14:21:49;25.00;60.90
12315;DHT22;23886;46.614;14.276;2023-03-23T14:24:18;25.10;60.50
12315;DHT22;23886;46.614;14.276;2023-03-23T14:26:48;25.90;59.70
12315;DHT22;23886;46.614;14.276;2023-03-23T14:29:18;25.30;59.50
12315;DHT22;23886;46.614;14.276;2023-03-23T14:31:50;25.10;59.80
12315;DHT22;23886;46.614;14.276;2023-03-23T14:34:22;26.10;58.90
12315;DHT22;23886;46.614;14.276;2023-03-23T14:36:52;25.90;59.10
12315;DHT22;23886;46.614;14.276;2023-03-23T14:39:22;25.50;58.80
12315;DHT22;23886;46.614;14.276;2023-03-23T14:41:51;25.40;59.10
12315;DHT22;23886;46.614;14.276;2023-03-23T14:44:23;25.30;58.70
12315;DHT22;23886;46.614;14.276;2023-03-23T14:46:51;25.30;58.30
12315;DHT22;23886;46.614;14.276;2023-03-23T14:49:27;24.80;59.60
12315;DHT22;23886;46.614;14.276;2023-03-23T14:51:55;25.50;59.30
12315;DHT22;23886;46.614;14.276;2023-03-23T14:54:24;26.00;57.90
12315;DHT22;23886;46.614;14.276;2023-03-23T14:56:51;26.30;58.00
12315;DHT22;23886;46.614;14.276;2023-03-23T14:59:18;26.10;58.00
12315;DHT22;23886;46.614;14.276;2023-03-23T15:01:47;25.50;57.80
12315;DHT22;23886;46.614;14.276;2023-03-23T15:04:17;25.50;57.70
12315;DHT22;23886;46.614;14.276;2023-03-23T15:06:49;25.70;56.40
12315;DHT22;23886;46.614;14.276;2023-03-23T15:09:18;25.60;57.10
12315;DHT22;23886;46.614;14.276;2023-03-23T15:11:53;26.00;56.90
12315;DHT22;23886;46.614;14.276;2023-03-23T15:14:23;25.80;56.40
12315;DHT22;23886;46.614;14.276;2023-03-23T15:16:52;25.70;58.00
12315;DHT22;23886;46.614;14.276;2023-03-23T15:19:23;25.40;57.10
12315;DHT22;23886;46.614;14.276;2023-03-23T15:21:54;25.20;57.50
12315;DHT22;23886;46.614;14.276;2023-03-23T15:24:27;25.30;57.50
12315;DHT22;23886;46.614;14.276;2023-03-23T15:27:10;25.50;57.40
12315;DHT22;23886;46.614;14.276;2023-03-23T15:29:47;24.60;58.50
12315;DHT22;23886;46.614;14.276;2023-03-23T15:32:20;25.10;58.50
12315;DHT22;23886;46.614;14.276;2023-03-23T15:34:48;24.60;58.30
12315;DHT22;23886;46.614;14.276;2023-03-23T15:37:21;24.90;58.40
12315;DHT22;23886;46.614;14.276;2023-03-23T15:39:49;25.20;57.00
12315;DHT22;23886;46.614;14.276;2023-03-23T15:42:26;25.10;57.20
12315;DHT22;23886;46.614;14.276;2023-03-23T15:45:16;25.00;57.30
12315;DHT22;23886;46.614;14.276;2023-03-23T15:47:47;24.80;57.90
12315;DHT22;23886;46.614;14.276;2023-03-23T15:50:16;24.40;57.40